createdAt,value
2018-11-28T00:00:45.265Z,80.25
2018-11-28T00:03:23.192Z,81.09
2018-11-28T00:06:01.343Z,80.80
2018-11-28T00:08:36.010Z,80.87
2018-11-28T00:11:14.757Z,81.12
2018-11-28T00:13:50.627Z,81.02
2018-11-28T00:16:27.192Z,80.49
2018-11-28T00:19:04.327Z,80.58
2018-11-28T00:21:45.202Z,81.47
2018-11-28T00:24:23.003Z,81.26
2018-11-28T00:26:57.432Z,80.89
2018-11-28T00:29:34.631Z,80.73
2018-11-28T00:32:13.065Z,80.59
2018-11-28T00:34:49.839Z,81.37
2018-11-28T00:37:28.665Z,80.90
2018-11-28T00:40:06.202Z,81.27
2018-11-28T00:42:41.619Z,80.73
2018-11-28T00:45:25.385Z,80.59
2018-11-28T00:48:04.843Z,81.14
2018-11-28T00:50:46.124Z,81.35
2018-11-28T00:53:26.232Z,81.62
2018-11-28T00:56:06.786Z,81.26
2018-11-28T00:58:47.962Z,81.30
2018-11-28T01:01:28.683Z,80.90
2018-11-28T01:04:07.583Z,80.98
2018-11-28T01:06:49.417Z,80.92
2018-11-28T01:09:31.150Z,81.99
2018-11-28T01:12:10.653Z,81.43
2018-11-28T01:14:51.202Z,80.80
2018-11-28T01:17:29.697Z,81.39
2018-11-28T01:20:07.888Z,81.04
2018-11-28T01:22:46.066Z,81.88
2018-11-28T01:25:26.130Z,81.80
2018-11-28T01:28:03.267Z,82.11
2018-11-28T01:30:39.028Z,80.97
2018-11-28T01:33:08.406Z,81.60
2018-11-28T01:35:37.776Z,81.40
2018-11-28T01:38:07.447Z,81.41
2018-11-28T01:40:37.049Z,81.68
2018-11-28T01:43:07.482Z,81.08
2018-11-28T01:45:36.851Z,82.08
2018-11-28T01:48:06.365Z,81.19
2018-11-28T01:50:35.779Z,82.13
2018-11-28T01:53:06.278Z,81.44
2018-11-28T01:55:35.688Z,80.94
2018-11-28T01:58:05.330Z,81.45
2018-11-28T02:00:34.664Z,81.84
2018-11-28T02:03:04.478Z,81.51
2018-11-28T02:05:33.861Z,82.28
2018-11-28T02:08:03.251Z,81.65
2018-11-28T02:10:34.883Z,81.10
2018-11-28T02:13:04.348Z,81.78
2018-11-28T02:15:33.753Z,81.51
2018-11-28T02:18:03.191Z,81.53
2018-11-28T02:20:32.674Z,82.07
2018-11-28T02:23:02.030Z,82.07
2018-11-28T02:25:31.373Z,81.71
2018-11-28T02:28:00.720Z,81.68
2018-11-28T02:30:30.075Z,81.51
2018-11-28T02:32:59.418Z,81.93
2018-11-28T02:35:28.782Z,81.58
2018-11-28T02:37:58.157Z,81.63
2018-11-28T02:40:27.543Z,82.17
2018-11-28T02:42:56.917Z,81.36
2018-11-28T02:45:26.297Z,81.58
2018-11-28T02:47:55.657Z,81.60
2018-11-28T02:50:24.990Z,81.79
2018-11-28T02:52:54.592Z,82.02
2018-11-28T02:55:24.214Z,81.86
2018-11-28T02:57:53.727Z,81.61
2018-11-28T03:00:24.882Z,81.60
2018-11-28T03:02:54.888Z,81.62
2018-11-28T03:05:24.486Z,81.58
2018-11-28T03:07:54.035Z,81.80
2018-11-28T03:10:24.078Z,82.11
2018-11-28T03:12:53.583Z,81.61
2018-11-28T03:15:28.561Z,81.12
2018-11-28T03:17:58.247Z,82.03
2018-11-28T03:20:27.810Z,81.86
2018-11-28T03:22:57.363Z,81.85
2018-11-28T03:25:26.913Z,82.09
2018-11-28T03:27:56.414Z,82.04
2018-11-28T03:30:26.029Z,81.95
2018-11-28T03:32:55.632Z,81.34
2018-11-28T03:35:25.021Z,81.47
2018-11-28T03:37:54.434Z,81.06
2018-11-28T03:40:23.806Z,81.56
2018-11-28T03:42:53.202Z,81.92
2018-11-28T03:45:22.600Z,80.89
2018-11-28T03:47:51.995Z,82.10
2018-11-28T03:50:21.386Z,82.06
2018-11-28T03:52:50.779Z,81.24
2018-11-28T03:55:20.146Z,81.49
2018-11-28T03:57:49.656Z,81.85
2018-11-28T04:00:20.937Z,81.96
2018-11-28T04:02:50.742Z,81.68
2018-11-28T04:05:20.331Z,81.40
2018-11-28T04:07:49.694Z,81.63
2018-11-28T04:10:19.060Z,81.68
2018-11-28T04:12:48.406Z,80.94
2018-11-28T04:15:19.152Z,81.42
2018-11-28T04:17:48.623Z,80.91
2018-11-28T04:20:19.426Z,81.12
2018-11-28T04:22:48.823Z,81.40
2018-11-28T04:25:19.840Z,81.34
2018-11-28T04:27:49.280Z,82.02
2018-11-28T04:30:20.772Z,82.08
2018-11-28T04:32:50.903Z,81.35
2018-11-28T04:35:20.261Z,81.93
2018-11-28T04:37:49.642Z,81.48
2018-11-28T04:40:20.419Z,81.51
2018-11-28T04:42:50.168Z,81.39
2018-11-28T04:45:27.955Z,81.12
2018-11-28T04:47:57.322Z,81.79
2018-11-28T04:50:26.682Z,82.11
2018-11-28T04:52:56.088Z,81.63
2018-11-28T04:55:25.485Z,81.54
2018-11-28T04:57:54.885Z,81.43
2018-11-28T05:00:27.070Z,81.27
2018-11-28T05:02:57.715Z,82.04
2018-11-28T05:05:27.103Z,81.71
2018-11-28T05:07:57.464Z,81.71
2018-11-28T05:10:30.940Z,81.13
2018-11-28T05:13:01.193Z,81.31
2018-11-28T05:15:32.216Z,81.26
2018-11-28T05:18:01.716Z,82.13
2018-11-28T05:20:33.528Z,81.79
2018-11-28T05:23:03.653Z,80.77
2018-11-28T05:25:34.286Z,81.29
2018-11-28T05:28:03.696Z,80.74
2018-11-28T05:30:33.734Z,81.25
2018-11-28T05:33:03.293Z,81.57
2018-11-28T05:35:38.308Z,81.72
2018-11-28T05:38:15.854Z,81.46
2018-11-28T05:40:45.852Z,81.78
2018-11-28T05:43:15.207Z,81.13
2018-11-28T05:45:44.594Z,81.38
2018-11-28T05:48:15.179Z,81.31
2018-11-28T05:50:43.501Z,81.36
2018-11-28T05:53:13.090Z,81.53
2018-11-28T05:55:42.528Z,81.63
2018-11-28T05:58:11.929Z,80.98
2018-11-28T06:00:42.139Z,81.13
2018-11-28T06:03:12.976Z,81.31
2018-11-28T06:05:43.205Z,81.33
2018-11-28T06:08:12.727Z,80.43
2018-11-28T06:10:42.117Z,81.35
2018-11-28T06:13:11.473Z,81.45
2018-11-28T06:15:40.786Z,80.47
2018-11-28T06:18:10.721Z,80.44
2018-11-28T06:20:40.107Z,80.77
2018-11-28T06:23:09.462Z,80.79
2018-11-28T06:25:38.840Z,80.43
2018-11-28T06:28:08.249Z,80.46
2018-11-28T06:30:37.753Z,80.93
2018-11-28T06:33:07.289Z,80.80
2018-11-28T06:35:36.712Z,80.74
2018-11-28T06:38:06.575Z,80.77
2018-11-28T06:40:35.947Z,80.84
2018-11-28T06:43:06.404Z,81.21
2018-11-28T06:45:35.789Z,80.79
2018-11-28T06:48:06.648Z,80.44
2018-11-28T06:50:36.012Z,80.53
2018-11-28T06:53:06.144Z,80.78
2018-11-28T06:55:35.465Z,80.50
2018-11-28T06:58:06.635Z,80.12
2018-11-28T07:00:35.965Z,80.91
2018-11-28T07:03:06.325Z,80.79
2018-11-28T07:05:35.706Z,80.65
2018-11-28T07:08:06.837Z,80.96
2018-11-28T07:10:36.448Z,80.39
2018-11-28T07:13:07.763Z,80.33
2018-11-28T07:15:37.088Z,80.24
2018-11-28T07:18:23.259Z,80.38
2018-11-28T07:20:52.646Z,80.54
2018-11-28T07:23:22.021Z,80.52
2018-11-28T07:25:51.422Z,79.99
2018-11-28T07:28:20.847Z,80.34
2018-11-28T07:30:55.298Z,80.06
2018-11-28T07:33:24.645Z,80.28
2018-11-28T07:35:54.054Z,80.21
2018-11-28T07:38:23.461Z,80.03
2018-11-28T07:40:52.865Z,79.48
2018-11-28T07:43:22.235Z,79.72
2018-11-28T07:45:52.843Z,79.71
2018-11-28T07:48:22.211Z,80.13
2018-11-28T07:50:51.859Z,79.87
2018-11-28T07:53:21.217Z,80.03
2018-11-28T07:55:50.667Z,79.56
2018-11-28T07:58:20.090Z,79.98
2018-11-28T08:00:49.473Z,79.42
2018-11-28T08:03:18.842Z,79.37
2018-11-28T08:05:48.214Z,79.90
2018-11-28T08:08:17.568Z,79.26
2018-11-28T08:10:46.980Z,79.74
2018-11-28T08:13:16.346Z,79.50
2018-11-28T08:15:45.815Z,79.18
2018-11-28T08:18:15.181Z,79.55
2018-11-28T08:20:44.558Z,79.60
2018-11-28T08:23:13.972Z,79.48
2018-11-28T08:25:43.360Z,79.44
2018-11-28T08:28:12.733Z,78.67
2018-11-28T08:30:42.121Z,79.27
2018-11-28T08:33:11.506Z,79.02
2018-11-28T08:35:40.897Z,78.38
2018-11-28T08:38:10.324Z,78.34
2018-11-28T08:40:39.676Z,78.72
2018-11-28T08:43:09.092Z,78.60
2018-11-28T08:45:38.642Z,78.72
2018-11-28T08:48:08.065Z,78.81
2018-11-28T08:50:38.845Z,78.62
2018-11-28T08:53:08.619Z,78.26
2018-11-28T08:55:37.957Z,78.48
2018-11-28T08:58:07.348Z,77.89
2018-11-28T09:00:37.115Z,78.22
2018-11-28T09:03:07.147Z,78.35
2018-11-28T09:05:36.488Z,77.42
2018-11-28T09:08:06.134Z,77.48
2018-11-28T09:10:35.479Z,77.82
2018-11-28T09:13:06.594Z,77.57
2018-11-28T09:15:35.955Z,77.35
2018-11-28T09:18:06.407Z,77.71
2018-11-28T09:20:35.786Z,77.14
2018-11-28T09:23:05.919Z,77.24
2018-11-28T09:25:35.266Z,77.14
2018-11-28T09:28:06.396Z,77.39
2018-11-28T09:30:36.010Z,77.10
2018-11-28T09:33:06.819Z,77.02
2018-11-28T09:35:36.213Z,76.69
2018-11-28T09:38:06.226Z,76.62
2018-11-28T09:40:35.617Z,76.84
2018-11-28T09:43:07.122Z,76.80
2018-11-28T09:45:36.558Z,76.64
2018-11-28T09:48:06.729Z,76.92
2018-11-28T09:50:36.102Z,76.47
2018-11-28T09:53:06.641Z,76.40
2018-11-28T09:55:36.039Z,75.93
2018-11-28T09:58:06.321Z,75.73
2018-11-28T10:00:37.095Z,76.07
2018-11-28T10:03:06.333Z,75.41
2018-11-28T10:05:35.876Z,75.44
2018-11-28T10:08:06.422Z,75.87
2018-11-28T10:10:35.810Z,75.54
2018-11-28T10:13:06.677Z,75.15
2018-11-28T10:15:36.051Z,75.28
2018-11-28T10:18:06.487Z,74.79
2018-11-28T10:20:35.918Z,74.50
2018-11-28T10:23:06.674Z,75.13
2018-11-28T10:25:36.064Z,74.54
2018-11-28T10:28:08.300Z,74.96
2018-11-28T10:30:38.984Z,74.92
2018-11-28T10:33:10.176Z,74.43
2018-11-28T10:35:40.598Z,74.40
2018-11-28T10:38:09.999Z,74.16
2018-11-28T10:40:39.374Z,74.35
2018-11-28T10:43:10.160Z,73.78
2018-11-28T10:45:39.679Z,73.61
2018-11-28T10:48:11.841Z,73.48
2018-11-28T10:50:41.213Z,73.39
2018-11-28T10:53:10.583Z,73.22
2018-11-28T10:55:39.974Z,73.36
2018-11-28T10:58:09.542Z,73.53
2018-11-28T11:00:44.114Z,72.89
2018-11-28T11:03:19.570Z,73.48
2018-11-28T11:05:54.242Z,72.90
2018-11-28T11:08:25.188Z,72.77
2018-11-28T11:10:59.922Z,72.89
2018-11-28T11:13:35.360Z,72.63
2018-11-28T11:16:05.750Z,72.32
2018-11-28T11:18:35.147Z,72.14
2018-11-28T11:21:04.569Z,72.32
2018-11-28T11:23:33.942Z,72.12
2018-11-28T11:26:03.358Z,71.93
2018-11-28T11:28:32.908Z,72.27
2018-11-28T11:31:02.329Z,72.10
2018-11-28T11:33:31.908Z,71.75
2018-11-28T11:36:01.323Z,71.62
2018-11-28T11:38:32.227Z,71.56
2018-11-28T11:41:01.641Z,71.56
2018-11-28T11:43:31.007Z,71.06
2018-11-28T11:46:00.399Z,71.66
2018-11-28T11:48:29.780Z,71.50
2018-11-28T11:50:59.242Z,71.12
2018-11-28T11:53:28.614Z,71.51
2018-11-28T11:55:58.016Z,71.10
2018-11-28T11:58:27.407Z,71.28
2018-11-28T12:00:56.988Z,71.23
2018-11-28T12:03:31.414Z,71.16
2018-11-28T12:06:01.433Z,71.13
2018-11-28T12:08:31.432Z,71.03
2018-11-28T12:11:01.300Z,71.29
2018-11-28T12:13:30.784Z,71.03
2018-11-28T12:16:00.214Z,71.28
2018-11-28T12:18:29.549Z,71.06
2018-11-28T12:21:02.477Z,71.34
2018-11-28T12:23:31.826Z,70.73
2018-11-28T12:26:01.186Z,70.94
2018-11-28T12:28:30.585Z,70.71
2018-11-28T12:31:00.023Z,70.70
2018-11-28T12:33:29.437Z,71.08
2018-11-28T12:35:58.813Z,70.95
2018-11-28T12:38:28.230Z,70.70
2018-11-28T12:40:58.322Z,70.57
2018-11-28T12:43:27.796Z,71.01
2018-11-28T12:45:57.151Z,70.92
2018-11-28T12:48:26.507Z,71.13
2018-11-28T12:50:55.884Z,70.80
2018-11-28T12:53:25.244Z,70.93
2018-11-28T12:55:56.397Z,70.73
2018-11-28T12:58:25.830Z,70.73
2018-11-28T13:00:55.209Z,70.76
2018-11-28T13:03:24.617Z,71.10
2018-11-28T13:05:54.027Z,70.75
2018-11-28T13:08:23.517Z,70.97
2018-11-28T13:10:53.034Z,70.85
2018-11-28T13:13:22.408Z,70.80
2018-11-28T13:15:51.816Z,71.27
2018-11-28T13:18:21.212Z,71.08
2018-11-28T13:20:50.581Z,70.88
2018-11-28T13:23:23.682Z,70.97
2018-11-28T13:25:53.101Z,71.10
2018-11-28T13:28:22.528Z,71.35
2018-11-28T13:30:51.895Z,71.47
2018-11-28T13:33:21.296Z,71.63
2018-11-28T13:35:50.660Z,71.73
2018-11-28T13:40:49.398Z,72.07
2018-11-28T13:43:18.776Z,71.53
2018-11-28T13:45:49.629Z,71.46
2018-11-28T13:48:19.109Z,71.70
2018-11-28T13:50:49.647Z,71.08
2018-11-28T13:53:18.704Z,71.39
2018-11-28T13:56:57.361Z,71.37
2018-11-28T13:58:23.733Z,71.48
2018-11-28T14:00:53.135Z,71.53
2018-11-28T14:03:22.494Z,71.76
2018-11-28T14:05:51.933Z,71.84
2018-11-28T14:08:21.265Z,71.93
2018-11-28T14:10:50.766Z,71.61
2018-11-28T14:13:20.169Z,71.82
2018-11-28T14:15:49.565Z,71.93
2018-11-28T14:18:20.205Z,72.02
2018-11-28T14:20:49.609Z,71.60
2018-11-28T14:23:19.002Z,71.82
2018-11-28T14:25:48.402Z,71.82
2018-11-28T14:28:17.742Z,71.98
2018-11-28T14:30:47.920Z,72.10
2018-11-28T14:33:17.300Z,71.85
2018-11-28T14:35:46.674Z,72.26
2018-11-28T14:38:16.042Z,72.14
2018-11-28T14:40:45.393Z,72.04
2018-11-28T14:43:15.021Z,72.17
2018-11-28T14:45:44.421Z,72.18
2018-11-28T14:48:13.820Z,72.51
2018-11-28T14:50:43.169Z,72.21
2018-11-28T14:53:12.565Z,72.31
2018-11-28T14:55:42.289Z,72.47
2018-11-28T14:58:13.126Z,72.36
2018-11-28T15:00:42.721Z,71.99
2018-11-28T15:03:16.262Z,72.19
2018-11-28T15:06:13.806Z,72.08
2018-11-28T15:08:43.195Z,72.37
2018-11-28T15:11:13.951Z,71.70
2018-11-28T15:13:44.041Z,72.24
2018-11-28T15:16:13.412Z,72.54
2018-11-28T15:18:42.833Z,72.83
2018-11-28T15:21:12.734Z,72.58
2018-11-28T15:23:42.191Z,72.90
2018-11-28T15:26:11.576Z,72.81
2018-11-28T15:28:40.959Z,73.09
2018-11-28T15:31:10.345Z,73.27
2018-11-28T15:33:39.732Z,73.21
2018-11-28T15:36:09.181Z,72.95
2018-11-28T15:38:38.527Z,72.72
2018-11-28T15:41:09.110Z,73.48
2018-11-28T15:43:38.479Z,73.68
2018-11-28T15:46:07.882Z,73.49
2018-11-28T15:48:37.254Z,73.08
2018-11-28T15:51:06.915Z,73.31
2018-11-28T15:53:36.281Z,73.50
2018-11-28T15:56:06.608Z,73.01
2018-11-28T15:58:39.416Z,73.03
2018-11-28T16:01:08.850Z,72.92
2018-11-28T16:03:38.233Z,72.88
2018-11-28T16:06:07.657Z,73.08
2018-11-28T16:08:37.019Z,72.86
2018-11-28T16:11:11.503Z,72.62
2018-11-28T16:13:42.501Z,72.49
2018-11-28T16:16:12.978Z,73.11
2018-11-28T16:18:42.341Z,72.44
2018-11-28T16:21:11.709Z,72.62
2018-11-28T16:23:41.052Z,72.33
2018-11-28T16:26:10.464Z,72.43
2018-11-28T16:28:39.849Z,72.29
2018-11-28T16:31:09.399Z,71.92
2018-11-28T16:33:38.740Z,71.89
2018-11-28T16:36:08.110Z,72.04
2018-11-28T16:38:37.497Z,71.76
2018-11-28T16:41:06.960Z,71.81
2018-11-28T16:43:36.306Z,71.11
2018-11-28T16:46:06.807Z,71.68
2018-11-28T16:48:36.229Z,71.67
2018-11-28T16:51:06.992Z,71.36
2018-11-28T16:53:36.383Z,71.60
2018-11-28T16:56:07.014Z,71.17
2018-11-28T16:58:36.372Z,71.09
2018-11-28T17:01:06.945Z,71.33
2018-11-28T17:03:36.445Z,70.77
2018-11-28T17:06:06.673Z,70.84
2018-11-28T17:08:36.043Z,70.90
2018-11-28T17:11:06.208Z,70.70
2018-11-28T17:13:36.723Z,70.67
2018-11-28T17:16:06.158Z,70.58
2018-11-28T17:18:35.553Z,70.77
2018-11-28T17:21:06.258Z,70.46
2018-11-28T17:23:35.665Z,70.76
2018-11-28T17:26:08.677Z,70.62
2018-11-28T17:28:38.122Z,70.57
2018-11-28T17:31:07.487Z,70.59
2018-11-28T17:33:36.908Z,70.35
2018-11-28T17:36:06.260Z,70.40
2018-11-28T17:38:35.628Z,70.61
2018-11-28T17:41:06.769Z,70.11
2018-11-28T17:43:36.142Z,70.60
2018-11-28T17:46:06.702Z,70.28
2018-11-28T17:48:36.091Z,70.56
2018-11-28T17:51:06.434Z,70.40
2018-11-28T17:53:36.167Z,70.26
2018-11-28T17:56:06.907Z,70.00
2018-11-28T17:58:36.290Z,69.98
2018-11-28T18:01:06.151Z,70.13
2018-11-28T18:03:35.514Z,70.20
2018-11-28T18:06:06.441Z,70.19
2018-11-28T18:08:35.801Z,70.27
2018-11-28T18:11:15.615Z,70.26
2018-11-28T18:13:45.449Z,70.23
2018-11-28T18:16:14.828Z,70.66
2018-11-28T18:18:45.200Z,70.74
2018-11-28T18:21:14.561Z,70.58
2018-11-28T18:23:43.927Z,70.74
2018-11-28T18:26:15.077Z,70.78
2018-11-28T18:28:44.444Z,70.74
2018-11-28T18:31:13.862Z,71.33
2018-11-28T18:33:43.228Z,70.77
2018-11-28T18:36:12.610Z,70.98
2018-11-28T18:38:41.983Z,70.70
2018-11-28T18:41:11.358Z,70.89
2018-11-28T18:43:40.765Z,71.18
2018-11-28T18:46:10.678Z,71.04
2018-11-28T18:48:40.153Z,71.08
2018-11-28T18:51:09.529Z,71.66
2018-11-28T18:53:39.015Z,71.88
2018-11-28T18:56:08.369Z,72.14
2018-11-28T18:58:37.740Z,72.26
2018-11-28T19:01:07.273Z,72.65
2018-11-28T19:03:36.624Z,72.92
2018-11-28T19:06:06.796Z,73.17
2018-11-28T19:08:36.182Z,73.28
2018-11-28T19:11:07.335Z,73.80
2018-11-28T19:13:36.711Z,74.15
2018-11-28T19:16:06.697Z,74.33
2018-11-28T19:18:35.845Z,74.92
2018-11-28T19:21:06.294Z,75.09
2018-11-28T19:23:35.723Z,75.49
2018-11-28T19:26:06.640Z,75.41
2018-11-28T19:28:36.178Z,75.65
2018-11-28T19:31:06.673Z,75.94
2018-11-28T19:33:36.076Z,75.79
2018-11-28T19:36:08.134Z,76.18
2018-11-28T19:38:37.581Z,76.72
2018-11-28T19:41:10.506Z,76.76
2018-11-28T19:43:39.939Z,76.93
2018-11-28T19:46:09.407Z,76.42
2018-11-28T19:48:38.779Z,76.88
2018-11-28T19:51:08.181Z,77.25
2018-11-28T19:53:37.538Z,77.46
2018-11-28T19:56:07.649Z,77.55
2018-11-28T19:58:42.210Z,77.63
2018-11-28T20:01:12.547Z,77.64
2018-11-28T20:03:43.189Z,77.79
2018-11-28T20:06:12.608Z,77.87
2018-11-28T20:08:41.973Z,77.84
2018-11-28T20:11:11.349Z,77.92
2018-11-28T20:13:40.716Z,78.23
2018-11-28T20:16:10.157Z,78.04
2018-11-28T20:18:39.511Z,77.91
2018-11-28T20:21:08.851Z,78.52
2018-11-28T20:23:38.197Z,78.47
2018-11-28T20:26:10.873Z,78.38
2018-11-28T20:28:40.500Z,78.55
2018-11-28T20:31:13.269Z,78.57
2018-11-28T20:33:42.654Z,78.97
2018-11-28T20:36:12.493Z,78.85
2018-11-28T20:38:41.950Z,79.00
2018-11-28T20:41:12.099Z,79.24
2018-11-28T20:43:41.774Z,79.17
2018-11-28T20:46:11.163Z,79.01
2018-11-28T20:48:40.698Z,79.64
2018-11-28T20:51:10.151Z,79.50
2018-11-28T20:53:39.532Z,79.61
2018-11-28T20:56:08.917Z,79.87
2018-11-28T20:58:38.369Z,79.82
2018-11-28T21:01:07.761Z,80.08
2018-11-28T21:03:37.140Z,79.83
2018-11-28T21:06:07.027Z,80.06
2018-11-28T21:08:36.426Z,80.19
2018-11-28T21:11:07.522Z,80.06
2018-11-28T21:13:37.637Z,79.87
2018-11-28T21:16:09.321Z,80.23
2018-11-28T21:18:38.708Z,80.08
2018-11-28T21:21:08.853Z,80.20
2018-11-28T21:23:38.321Z,80.15
2018-11-28T21:26:07.797Z,80.25
2018-11-28T21:28:39.015Z,80.14
2018-11-28T21:31:08.497Z,80.51
2018-11-28T21:33:37.948Z,80.28
2018-11-28T21:36:08.578Z,80.30
2018-11-28T21:38:38.521Z,80.53
2018-11-28T21:41:08.017Z,80.79
2018-11-28T21:43:38.169Z,80.92
2018-11-28T21:46:08.084Z,80.76
2018-11-28T21:48:37.461Z,80.69
2018-11-28T21:51:06.917Z,81.00
2018-11-28T21:53:37.933Z,80.90
2018-11-28T21:56:09.225Z,80.96
2018-11-28T21:58:42.631Z,81.00
2018-11-28T22:01:15.604Z,80.98
2018-11-28T22:03:44.989Z,81.19
2018-11-28T22:06:14.564Z,81.51
2018-11-28T22:08:43.921Z,81.34
2018-11-28T22:11:15.980Z,81.14
2018-11-28T22:13:45.390Z,81.27
2018-11-28T22:16:14.775Z,81.20
2018-11-28T22:18:44.253Z,81.25
2018-11-28T22:21:13.604Z,81.75
2018-11-28T22:23:43.233Z,81.32
2018-11-28T22:26:12.327Z,81.37
2018-11-28T22:28:41.764Z,81.70
2018-11-28T22:31:11.365Z,81.39
2018-11-28T22:33:40.866Z,81.69
2018-11-28T22:36:10.246Z,81.54
2018-11-28T22:38:39.749Z,81.54
2018-11-28T22:41:09.102Z,81.74
2018-11-28T22:43:38.851Z,81.51
2018-11-28T22:46:08.292Z,81.92
2018-11-28T22:48:37.650Z,81.78
2018-11-28T22:51:07.221Z,81.81
2018-11-28T22:53:36.622Z,81.67
2018-11-28T22:56:06.067Z,81.74
2018-11-28T22:58:35.451Z,82.01
2018-11-28T23:01:08.384Z,81.90
2018-11-28T23:03:37.787Z,81.97
2018-11-28T23:06:07.144Z,81.98
2018-11-28T23:08:36.521Z,82.27
2018-11-28T23:11:06.934Z,82.42
2018-11-28T23:13:36.852Z,82.18
2018-11-28T23:16:06.457Z,82.03
2018-11-28T23:18:36.528Z,82.17
2018-11-28T23:21:06.514Z,82.24
2018-11-28T23:23:36.371Z,82.38
2018-11-28T23:26:06.301Z,82.28
2018-11-28T23:28:35.662Z,82.32
2018-11-28T23:31:06.464Z,82.37
2018-11-28T23:33:35.977Z,82.37
2018-11-28T23:36:06.571Z,81.95
2018-11-28T23:38:35.947Z,82.00
2018-11-28T23:41:06.902Z,82.15
2018-11-28T23:43:39.442Z,82.35
2018-11-28T23:46:09.988Z,82.57
2018-11-28T23:48:46.815Z,82.47
2018-11-28T23:51:17.574Z,82.57
2018-11-28T23:53:51.156Z,82.57
2018-11-28T23:56:21.823Z,82.24
2018-11-28T23:58:57.441Z,82.50
